createdAt,value
2019-01-26T00:01:44.433Z,98751.27
2019-01-26T00:04:10.991Z,98755.83
2019-01-26T00:06:37.574Z,98743.52
2019-01-26T00:09:07.485Z,98743.67
2019-01-26T00:11:34.065Z,98734.66
2019-01-26T00:14:00.632Z,98740.32
2019-01-26T00:16:27.198Z,98738.30
2019-01-26T00:18:53.740Z,98731.19
2019-01-26T00:21:20.316Z,98736.01
2019-01-26T00:23:46.869Z,98724.88
2019-01-26T00:26:13.437Z,98739.47
2019-01-26T00:28:39.983Z,98729.83
2019-01-26T00:31:06.560Z,98729.50
2019-01-26T00:33:33.106Z,98726.67
2019-01-26T00:35:59.671Z,98750.83
2019-01-26T00:38:26.211Z,98680.95
2019-01-26T00:40:52.774Z,98713.98
2019-01-26T00:43:19.348Z,98716.53
2019-01-26T00:45:46.029Z,98718.08
2019-01-26T00:48:12.593Z,98717.28
2019-01-26T00:50:39.179Z,98712.08
2019-01-26T00:53:05.734Z,98717.70
2019-01-26T00:55:32.317Z,98706.83
2019-01-26T00:57:58.866Z,98710.80
2019-01-26T01:00:25.435Z,98704.48
2019-01-26T01:02:51.992Z,98705.66
2019-01-26T01:05:18.569Z,98703.78
2019-01-26T01:07:45.193Z,98698.64
2019-01-26T01:10:11.710Z,98695.61
2019-01-26T01:12:38.331Z,98703.38
2019-01-26T01:15:05.505Z,98697.00
2019-01-26T01:17:32.097Z,98704.21
2019-01-26T01:19:58.649Z,98697.92
2019-01-26T01:22:25.213Z,98700.69
2019-01-26T01:24:51.792Z,98699.72
2019-01-26T01:27:18.357Z,98692.50
2019-01-26T01:29:44.906Z,98687.28
2019-01-26T01:32:11.481Z,98698.30
2019-01-26T01:34:38.060Z,98697.78
2019-01-26T01:37:04.585Z,98693.58
2019-01-26T01:39:31.222Z,98693.05
2019-01-26T01:41:57.810Z,98689.64
2019-01-26T01:44:24.356Z,98683.14
2019-01-26T01:46:50.927Z,98680.06
2019-01-26T01:49:17.498Z,98686.94
2019-01-26T01:51:44.066Z,98683.59
2019-01-26T01:54:10.626Z,98675.75
2019-01-26T01:56:37.181Z,98672.38
2019-01-26T01:59:03.730Z,98676.09
2019-01-26T02:01:30.326Z,98681.87
2019-01-26T02:03:56.882Z,98673.99
2019-01-26T02:06:23.446Z,98673.20
2019-01-26T02:08:50.010Z,98668.28
2019-01-26T02:11:36.185Z,98665.56
2019-01-26T02:14:02.738Z,98669.16
2019-01-26T02:16:29.308Z,98663.23
2019-01-26T02:18:55.951Z,98665.25
2019-01-26T02:21:22.510Z,98669.64
2019-01-26T02:23:49.074Z,98674.14
2019-01-26T02:26:15.618Z,98661.63
2019-01-26T02:28:42.583Z,98658.24
2019-01-26T02:31:09.169Z,98651.14
2019-01-26T02:33:35.720Z,98653.53
2019-01-26T02:36:02.305Z,98657.42
2019-01-26T02:38:28.849Z,98661.31
2019-01-26T02:40:55.396Z,98662.09
2019-01-26T02:43:21.974Z,98654.70
2019-01-26T02:45:48.553Z,98658.92
2019-01-26T02:48:15.099Z,98656.25
2019-01-26T02:50:41.641Z,98657.16
2019-01-26T02:53:08.225Z,98649.75
2019-01-26T02:55:34.771Z,98660.09
2019-01-26T02:58:01.343Z,98657.16
2019-01-26T03:00:27.886Z,98661.27
2019-01-26T03:02:54.449Z,98661.00
2019-01-26T03:05:21.022Z,98659.94
2019-01-26T03:07:47.582Z,98660.04
2019-01-26T03:10:15.724Z,98655.64
2019-01-26T03:12:42.292Z,98652.47
2019-01-26T03:15:10.340Z,98650.37
2019-01-26T03:17:36.914Z,98644.37
2019-01-26T03:20:04.916Z,98641.25
2019-01-26T03:22:31.479Z,98646.47
2019-01-26T03:24:58.037Z,98643.87
2019-01-26T03:27:24.573Z,98648.13
2019-01-26T03:29:51.154Z,98648.88
2019-01-26T03:32:17.700Z,98646.92
2019-01-26T03:34:44.266Z,98641.39
2019-01-26T03:37:10.819Z,98643.50
2019-01-26T03:39:37.393Z,98653.27
2019-01-26T03:42:03.950Z,98642.61
2019-01-26T03:44:30.519Z,98634.06
2019-01-26T03:46:57.072Z,98630.59
2019-01-26T03:49:23.639Z,98635.04
2019-01-26T03:51:50.196Z,98634.48
2019-01-26T03:54:16.768Z,98631.32
2019-01-26T03:56:43.317Z,98627.70
2019-01-26T03:59:09.888Z,98619.70
2019-01-26T04:01:36.440Z,98618.30
2019-01-26T04:04:03.051Z,98619.96
2019-01-26T04:06:29.612Z,98625.68
2019-01-26T04:08:56.187Z,98616.53
2019-01-26T04:11:22.739Z,98615.36
2019-01-26T04:13:49.321Z,98618.47
2019-01-26T04:16:15.903Z,98609.90
2019-01-26T04:18:42.477Z,98600.88
2019-01-26T04:21:09.036Z,98600.58
2019-01-26T04:23:35.601Z,98603.73
2019-01-26T04:26:02.163Z,98596.92
2019-01-26T04:28:28.748Z,98594.52
2019-01-26T04:30:55.293Z,98597.37
2019-01-26T04:33:21.832Z,98591.31
2019-01-26T04:35:48.406Z,98591.77
2019-01-26T04:38:14.961Z,98589.77
2019-01-26T04:40:41.533Z,98593.38
2019-01-26T04:43:08.075Z,98596.09
2019-01-26T04:45:34.956Z,98591.72
2019-01-26T04:48:01.501Z,98585.70
2019-01-26T04:50:28.062Z,98589.02
2019-01-26T04:52:54.626Z,98595.86
2019-01-26T04:55:21.184Z,98589.84
2019-01-26T04:57:47.740Z,98589.83
2019-01-26T05:00:22.716Z,98586.98
2019-01-26T05:02:49.246Z,98585.36
2019-01-26T05:05:15.991Z,98579.83
2019-01-26T05:07:42.570Z,98580.66
2019-01-26T05:10:10.153Z,98578.58
2019-01-26T05:12:36.708Z,98578.03
2019-01-26T05:15:03.962Z,98574.08
2019-01-26T05:17:30.662Z,98570.78
2019-01-26T05:19:57.207Z,98569.50
2019-01-26T05:22:23.783Z,98559.97
2019-01-26T05:24:50.349Z,98570.58
2019-01-26T05:27:16.899Z,98570.03
2019-01-26T05:29:43.474Z,98578.02
2019-01-26T05:32:10.081Z,98559.61
2019-01-26T05:34:36.651Z,98556.64
2019-01-26T05:37:03.215Z,98561.41
2019-01-26T05:39:29.802Z,98555.92
2019-01-26T05:41:56.347Z,98553.13
2019-01-26T05:44:22.910Z,98554.67
2019-01-26T05:46:49.576Z,98552.65
2019-01-26T05:49:16.127Z,98556.97
2019-01-26T05:51:42.703Z,98548.17
2019-01-26T05:54:09.286Z,98542.45
2019-01-26T05:56:35.846Z,98543.28
2019-01-26T05:59:02.436Z,98536.24
2019-01-26T06:01:29.007Z,98543.55
2019-01-26T06:03:55.617Z,98533.16
2019-01-26T06:06:22.186Z,98550.89
2019-01-26T06:08:48.771Z,98529.30
2019-01-26T06:11:15.350Z,98524.73
2019-01-26T06:13:41.892Z,98524.48
2019-01-26T06:16:08.469Z,98513.45
2019-01-26T06:18:35.040Z,98514.76
2019-01-26T06:21:01.599Z,98501.97
2019-01-26T06:23:28.154Z,98499.34
2019-01-26T06:25:54.727Z,98497.11
2019-01-26T06:28:21.576Z,98494.64
2019-01-26T06:30:48.156Z,98491.94
2019-01-26T06:33:14.717Z,98486.55
2019-01-26T06:35:41.263Z,98477.77
2019-01-26T06:38:07.848Z,98476.66
2019-01-26T06:40:34.400Z,98469.25
2019-01-26T06:43:00.963Z,98462.49
2019-01-26T06:45:27.519Z,98465.54
2019-01-26T06:47:54.093Z,98468.22
2019-01-26T06:50:24.315Z,98470.43
2019-01-26T06:52:50.896Z,98468.23
2019-01-26T06:55:19.674Z,98459.50
2019-01-26T06:57:46.234Z,98453.69
2019-01-26T07:00:15.141Z,98451.69
2019-01-26T07:02:41.710Z,98458.09
2019-01-26T07:05:15.319Z,98462.89
2019-01-26T07:07:41.914Z,98452.88
2019-01-26T07:10:08.530Z,98462.53
2019-01-26T07:12:35.089Z,98451.94
2019-01-26T07:15:01.660Z,98450.41
2019-01-26T07:17:28.223Z,98457.27
2019-01-26T07:19:54.791Z,98454.82
2019-01-26T07:22:21.363Z,98467.98
2019-01-26T07:24:47.908Z,98465.66
2019-01-26T07:27:14.607Z,98467.16
2019-01-26T07:29:43.459Z,98457.70
2019-01-26T07:32:10.066Z,98449.38
2019-01-26T07:34:36.602Z,98462.27
2019-01-26T07:37:03.193Z,98461.51
2019-01-26T07:39:29.737Z,98456.30
2019-01-26T07:41:56.273Z,98464.91
2019-01-26T07:44:22.872Z,98458.14
2019-01-26T07:46:49.417Z,98468.42
2019-01-26T07:49:15.981Z,98442.34
2019-01-26T07:51:42.516Z,98455.45
2019-01-26T07:54:09.093Z,98457.75
2019-01-26T07:56:38.723Z,98459.36
2019-01-26T07:59:05.274Z,98437.65
2019-01-26T08:01:31.861Z,98460.64
2019-01-26T08:03:58.403Z,98449.91
2019-01-26T08:06:24.972Z,98456.18
2019-01-26T08:08:51.541Z,98451.87
2019-01-26T08:11:18.100Z,98447.67
2019-01-26T08:13:44.671Z,98455.94
2019-01-26T08:16:11.235Z,98447.89
2019-01-26T08:18:37.800Z,98448.37
2019-01-26T08:21:04.357Z,98453.47
2019-01-26T08:23:30.925Z,98437.63
2019-01-26T08:25:57.488Z,98446.14
2019-01-26T08:28:24.062Z,98458.02
2019-01-26T08:30:50.616Z,98440.31
2019-01-26T08:33:17.174Z,98447.27
2019-01-26T08:35:43.720Z,98449.00
2019-01-26T08:38:10.262Z,98451.78
2019-01-26T08:40:36.844Z,98438.64
2019-01-26T08:43:03.519Z,98443.06
2019-01-26T08:45:30.102Z,98450.40
2019-01-26T08:47:56.690Z,98459.87
2019-01-26T08:50:24.177Z,98447.39
2019-01-26T08:52:50.736Z,98459.23
2019-01-26T08:55:18.445Z,98448.11
2019-01-26T08:57:45.154Z,98456.28
2019-01-26T09:00:17.778Z,98455.23
2019-01-26T09:03:12.971Z,98446.87
2019-01-26T09:05:56.566Z,98443.00
2019-01-26T09:08:23.128Z,98456.17
2019-01-26T09:10:49.715Z,98460.37
2019-01-26T09:13:16.254Z,98449.96
2019-01-26T09:15:42.830Z,98462.91
2019-01-26T09:18:09.397Z,98463.22
2019-01-26T09:20:35.971Z,98460.27
2019-01-26T09:23:02.541Z,98455.55
2019-01-26T09:25:29.934Z,98457.25
2019-01-26T09:27:57.021Z,98461.81
2019-01-26T09:30:23.569Z,98457.84
2019-01-26T09:32:50.133Z,98466.07
2019-01-26T09:35:16.701Z,98465.70
2019-01-26T09:37:43.293Z,98465.45
2019-01-26T09:40:09.864Z,98468.51
2019-01-26T09:42:36.404Z,98457.73
2019-01-26T09:45:04.413Z,98453.98
2019-01-26T09:47:30.981Z,98433.58
2019-01-26T09:49:57.552Z,98464.59
2019-01-26T09:52:24.111Z,98461.59
2019-01-26T09:54:50.681Z,98472.70
2019-01-26T09:57:17.349Z,98464.59
2019-01-26T09:59:43.910Z,98462.19
2019-01-26T10:02:10.466Z,98462.32
2019-01-26T10:04:37.029Z,98473.42
2019-01-26T10:07:03.750Z,98416.53
2019-01-26T10:09:30.318Z,98470.98
2019-01-26T10:11:56.896Z,98456.95
2019-01-26T10:14:23.470Z,98456.95
2019-01-26T10:16:50.106Z,98469.23
2019-01-26T10:19:16.655Z,98470.09
2019-01-26T10:21:43.259Z,98466.38
2019-01-26T10:24:09.802Z,98461.46
2019-01-26T10:26:36.395Z,98465.38
2019-01-26T10:29:02.942Z,98465.38
2019-01-26T10:31:29.536Z,98455.69
2019-01-26T10:33:56.092Z,98471.18
2019-01-26T10:36:27.652Z,98457.17
2019-01-26T10:39:13.850Z,98465.80
2019-01-26T10:42:00.695Z,98468.05
2019-01-26T10:44:31.097Z,98462.86
2019-01-26T10:46:57.660Z,98460.79
2019-01-26T10:49:24.241Z,98451.33
2019-01-26T10:51:50.838Z,98456.66
2019-01-26T10:54:17.409Z,98453.31
2019-01-26T10:56:43.977Z,98453.31
2019-01-26T10:59:10.527Z,98444.76
2019-01-26T11:01:37.090Z,98444.76
2019-01-26T11:04:03.664Z,98451.42
2019-01-26T11:06:30.232Z,98460.43
2019-01-26T11:08:56.801Z,98449.50
2019-01-26T11:11:23.364Z,98447.92
2019-01-26T11:13:50.347Z,98445.91
2019-01-26T11:16:16.928Z,98449.09
2019-01-26T11:18:43.482Z,98434.34
2019-01-26T11:21:10.050Z,98456.34
2019-01-26T11:23:36.600Z,98443.55
2019-01-26T11:26:03.166Z,98443.55
2019-01-26T11:28:29.715Z,98450.31
2019-01-26T11:30:56.485Z,98444.21
2019-01-26T11:33:23.053Z,98417.89
2019-01-26T11:35:49.614Z,98441.08
2019-01-26T11:38:16.164Z,98432.77
2019-01-26T11:40:42.715Z,98424.14
2019-01-26T11:43:09.308Z,98420.14
2019-01-26T11:45:58.260Z,98433.59
2019-01-26T11:48:27.822Z,98426.67
2019-01-26T11:50:59.780Z,98429.34
2019-01-26T11:53:26.326Z,98426.80
2019-01-26T11:56:20.594Z,98426.80
2019-01-26T11:58:47.151Z,98412.20
2019-01-26T12:01:28.492Z,98412.20
2019-01-26T12:04:11.255Z,98409.36
2019-01-26T12:06:42.391Z,98396.03
2019-01-26T12:09:08.960Z,98406.95
2019-01-26T12:11:35.528Z,98407.25
2019-01-26T12:14:21.699Z,98395.44
2019-01-26T12:16:48.303Z,98395.44
2019-01-26T12:19:14.838Z,98395.67
2019-01-26T12:21:41.397Z,98408.20
2019-01-26T12:24:07.941Z,98403.28
2019-01-26T12:26:34.518Z,98403.28
2019-01-26T12:29:01.068Z,98404.34
2019-01-26T12:31:27.636Z,98398.74
2019-01-26T12:33:54.190Z,98408.98
2019-01-26T12:36:20.795Z,98410.64
2019-01-26T12:38:47.352Z,98409.21
2019-01-26T12:41:13.898Z,98399.98
2019-01-26T12:43:40.499Z,98403.75
2019-01-26T12:46:07.050Z,98398.47
2019-01-26T12:48:33.627Z,98396.48
2019-01-26T12:51:00.177Z,98404.30
2019-01-26T12:53:26.746Z,98399.98
2019-01-26T12:55:53.305Z,98400.07
2019-01-26T12:58:19.866Z,98388.31
2019-01-26T13:00:46.411Z,98392.73
2019-01-26T13:03:12.983Z,98392.73
2019-01-26T13:05:39.514Z,98376.38
2019-01-26T13:08:06.107Z,98385.02
2019-01-26T13:10:35.802Z,98372.48
2019-01-26T13:13:03.983Z,98381.06
2019-01-26T13:15:30.525Z,98377.61
2019-01-26T13:17:57.836Z,98383.11
2019-01-26T13:20:44.014Z,98345.37
2019-01-26T13:23:10.592Z,98345.37
2019-01-26T13:25:37.151Z,98366.12
2019-01-26T13:28:03.872Z,98351.75
2019-01-26T13:30:30.413Z,98379.36
2019-01-26T13:32:56.990Z,98374.70
2019-01-26T13:35:23.537Z,98365.72
2019-01-26T13:37:50.100Z,98369.63
2019-01-26T13:40:17.876Z,98378.95
2019-01-26T13:42:44.428Z,98377.63
2019-01-26T13:45:12.129Z,98385.75
2019-01-26T13:47:38.673Z,98377.02
2019-01-26T13:50:06.105Z,98366.78
2019-01-26T13:52:32.651Z,98354.47
2019-01-26T13:54:59.212Z,98366.65
2019-01-26T13:57:25.755Z,98353.79
2019-01-26T13:59:52.323Z,98368.25
2019-01-26T14:02:18.865Z,98355.81
2019-01-26T14:04:45.429Z,98355.81
2019-01-26T14:07:11.993Z,98356.25
2019-01-26T14:09:38.590Z,98348.09
2019-01-26T14:12:05.163Z,98352.58
2019-01-26T14:14:31.737Z,98329.03
2019-01-26T14:16:58.298Z,98343.39
2019-01-26T14:19:24.873Z,98352.09
2019-01-26T14:21:51.417Z,98341.80
2019-01-26T14:24:17.997Z,98352.09
2019-01-26T14:26:49.718Z,98343.36
2019-01-26T14:29:13.023Z,98326.50
2019-01-26T14:31:39.573Z,98345.19
2019-01-26T14:34:06.144Z,98355.26
2019-01-26T14:36:32.705Z,98329.54
2019-01-26T14:38:59.278Z,98329.72
2019-01-26T14:41:25.824Z,98342.25
2019-01-26T14:43:52.400Z,98334.27
2019-01-26T14:46:18.946Z,98333.84
2019-01-26T14:48:45.513Z,98328.38
2019-01-26T14:51:12.070Z,98338.99
2019-01-26T14:53:38.671Z,98338.72
2019-01-26T14:56:05.221Z,98344.59
2019-01-26T14:58:31.792Z,98319.98
2019-01-26T15:00:58.347Z,98334.25
2019-01-26T15:03:24.901Z,98342.62
2019-01-26T15:05:51.482Z,98332.43
2019-01-26T15:08:18.050Z,98325.08
2019-01-26T15:10:44.610Z,98319.11
2019-01-26T15:13:11.154Z,98327.75
2019-01-26T15:15:37.740Z,98330.59
2019-01-26T15:18:04.284Z,98323.83
2019-01-26T15:20:36.259Z,98306.98
2019-01-26T15:23:03.010Z,98306.34
2019-01-26T15:25:29.577Z,98304.97
2019-01-26T15:27:56.129Z,98320.39
2019-01-26T15:30:27.830Z,98314.98
2019-01-26T15:32:54.382Z,98314.10
2019-01-26T15:35:20.940Z,98286.83
2019-01-26T15:37:47.493Z,98304.50
2019-01-26T15:40:32.821Z,98297.48
2019-01-26T15:42:59.375Z,98304.92
2019-01-26T15:45:28.790Z,98301.70
2019-01-26T15:47:55.343Z,98306.44
2019-01-26T15:50:21.913Z,98295.42
2019-01-26T15:52:48.470Z,98286.33
2019-01-26T15:55:16.558Z,98291.28
2019-01-26T15:57:43.111Z,98300.97
2019-01-26T16:00:13.859Z,98283.98
2019-01-26T16:02:40.410Z,98287.65
2019-01-26T16:05:07.142Z,98293.03
2019-01-26T16:07:33.688Z,98292.16
2019-01-26T16:10:00.302Z,98291.14
2019-01-26T16:12:26.853Z,98279.81
2019-01-26T16:14:53.396Z,98290.41
2019-01-26T16:17:19.979Z,98293.03
2019-01-26T16:19:46.551Z,98284.41
2019-01-26T16:22:13.159Z,98283.30
2019-01-26T16:24:39.707Z,98266.27
2019-01-26T16:27:06.274Z,98276.14
2019-01-26T16:29:32.811Z,98277.09
2019-01-26T16:31:59.371Z,98272.97
2019-01-26T16:34:25.919Z,98271.45
2019-01-26T16:36:52.487Z,98268.61
2019-01-26T16:39:20.393Z,98259.94
2019-01-26T16:41:47.549Z,98263.19
2019-01-26T16:44:14.103Z,98247.08
2019-01-26T16:46:40.674Z,98243.58
2019-01-26T16:49:07.319Z,98253.92
2019-01-26T16:51:33.887Z,98238.77
2019-01-26T16:54:00.423Z,98250.06
2019-01-26T16:56:26.996Z,98239.45
2019-01-26T16:58:53.553Z,98236.66
2019-01-26T17:01:20.128Z,98247.67
2019-01-26T17:03:46.681Z,98221.53
2019-01-26T17:06:13.768Z,98228.89
2019-01-26T17:08:40.323Z,98225.17
2019-01-26T17:11:06.890Z,98228.20
2019-01-26T17:13:33.472Z,98210.48
2019-01-26T17:16:00.039Z,98222.82
2019-01-26T17:18:26.595Z,98223.61
2019-01-26T17:20:53.143Z,98223.89
2019-01-26T17:23:20.107Z,98216.77
2019-01-26T17:25:46.672Z,98204.48
2019-01-26T17:28:13.241Z,98212.06
2019-01-26T17:30:40.698Z,98200.61
2019-01-26T17:33:07.836Z,98201.29
2019-01-26T17:35:34.521Z,98185.78
2019-01-26T17:38:01.097Z,98159.87
2019-01-26T17:40:27.648Z,98156.37
2019-01-26T17:42:54.216Z,98172.80
2019-01-26T17:45:20.823Z,98180.58
2019-01-26T17:47:47.527Z,98169.37
2019-01-26T17:50:15.849Z,98157.52
2019-01-26T17:52:42.418Z,98153.86
2019-01-26T17:55:08.970Z,98158.54
2019-01-26T17:57:35.701Z,98139.86
2019-01-26T18:00:02.415Z,98146.34
2019-01-26T18:02:28.989Z,98145.27
2019-01-26T18:04:55.540Z,98144.44
2019-01-26T18:07:22.107Z,98133.16
2019-01-26T18:09:48.673Z,98130.04
2019-01-26T18:12:15.249Z,98133.16
2019-01-26T18:14:41.797Z,98131.79
2019-01-26T18:17:08.334Z,98114.26
2019-01-26T18:19:34.901Z,98098.30
2019-01-26T18:22:01.455Z,98116.42
2019-01-26T18:24:28.013Z,98108.27
2019-01-26T18:26:54.554Z,98108.05
2019-01-26T18:29:21.121Z,98104.94
2019-01-26T18:31:47.694Z,98098.86
2019-01-26T18:34:14.254Z,98098.93
2019-01-26T18:36:40.803Z,98097.84
2019-01-26T18:39:07.874Z,98087.69
2019-01-26T18:41:34.431Z,98091.34
2019-01-26T18:44:03.377Z,98087.21
2019-01-26T18:46:29.926Z,98081.33
2019-01-26T18:48:56.481Z,98084.52
2019-01-26T18:51:23.019Z,98075.38
2019-01-26T18:53:49.588Z,98084.30
2019-01-26T18:56:16.130Z,98077.56
2019-01-26T18:58:42.684Z,98063.75
2019-01-26T19:01:09.237Z,98063.75
2019-01-26T19:03:59.548Z,98067.93
2019-01-26T19:06:26.106Z,98058.89
2019-01-26T19:08:52.688Z,98055.50
2019-01-26T19:11:19.241Z,98059.29
2019-01-26T19:13:45.810Z,98044.80
2019-01-26T19:16:12.360Z,98042.79
2019-01-26T19:18:38.930Z,98036.69
2019-01-26T19:21:05.484Z,98034.69
2019-01-26T19:23:32.050Z,98027.83
2019-01-26T19:25:58.614Z,98026.61
2019-01-26T19:28:25.179Z,98017.02
2019-01-26T19:30:51.759Z,98021.34
2019-01-26T19:33:18.316Z,98008.70
2019-01-26T19:35:44.978Z,98007.97
2019-01-26T19:38:11.524Z,98009.66
2019-01-26T19:40:38.093Z,98005.13
2019-01-26T19:43:04.646Z,98002.48
2019-01-26T19:45:31.225Z,97996.95
2019-01-26T19:47:57.793Z,98000.73
2019-01-26T19:50:24.365Z,97994.30
2019-01-26T19:52:50.908Z,97991.27
2019-01-26T19:55:17.743Z,97991.27
2019-01-26T19:57:44.285Z,97985.84
2019-01-26T20:00:10.874Z,97976.53
2019-01-26T20:02:37.435Z,97981.88
2019-01-26T20:05:04.784Z,97987.70
2019-01-26T20:07:33.242Z,97965.04
2019-01-26T20:10:00.258Z,97960.05
2019-01-26T20:12:26.791Z,97955.80
2019-01-26T20:14:53.377Z,97957.47
2019-01-26T20:17:19.925Z,97955.39
2019-01-26T20:19:46.498Z,97955.64
2019-01-26T20:22:13.047Z,97933.34
2019-01-26T20:24:39.617Z,97939.77
2019-01-26T20:27:06.185Z,97929.96
2019-01-26T20:29:32.741Z,97932.41
2019-01-26T20:31:59.297Z,97934.70
2019-01-26T20:34:25.872Z,97929.48
2019-01-26T20:36:52.427Z,97927.42
2019-01-26T20:39:18.997Z,97931.38
2019-01-26T20:41:45.558Z,97920.18
2019-01-26T20:44:12.145Z,97913.97
2019-01-26T20:46:39.889Z,97904.56
2019-01-26T20:49:06.429Z,97903.09
2019-01-26T20:51:32.989Z,97908.09
2019-01-26T20:53:59.560Z,97893.68
2019-01-26T20:56:26.111Z,97896.06
2019-01-26T20:58:52.657Z,97895.39
2019-01-26T21:01:19.529Z,97880.05
2019-01-26T21:03:46.081Z,97878.62
2019-01-26T21:06:12.644Z,97870.06
2019-01-26T21:08:39.198Z,97864.19
2019-01-26T21:11:05.774Z,97862.36
2019-01-26T21:13:32.323Z,97859.58
2019-01-26T21:15:58.884Z,97854.91
2019-01-26T21:18:25.871Z,97846.21
2019-01-26T21:20:52.465Z,97844.39
2019-01-26T21:23:19.037Z,97845.34
2019-01-26T21:25:45.579Z,97819.96
2019-01-26T21:28:12.143Z,97837.90
2019-01-26T21:30:38.719Z,97833.19
2019-01-26T21:33:05.257Z,97834.94
2019-01-26T21:35:31.865Z,97823.39
2019-01-26T21:37:58.422Z,97830.48
2019-01-26T21:40:27.059Z,97825.42
2019-01-26T21:42:53.621Z,97816.77
2019-01-26T21:45:20.384Z,97808.31
2019-01-26T21:47:46.933Z,97812.09
2019-01-26T21:50:18.829Z,97806.85
2019-01-26T21:52:45.382Z,97805.82
2019-01-26T21:55:11.931Z,97803.86
2019-01-26T21:57:38.502Z,97797.91
2019-01-26T22:00:11.446Z,97784.67
2019-01-26T22:02:38.010Z,97782.19
2019-01-26T22:05:05.243Z,97791.34
2019-01-26T22:07:31.820Z,97790.81
2019-01-26T22:09:58.390Z,97780.36
2019-01-26T22:12:24.965Z,97779.16
2019-01-26T22:14:51.516Z,97785.14
2019-01-26T22:17:18.080Z,97769.89
2019-01-26T22:19:44.638Z,97768.89
2019-01-26T22:22:11.208Z,97755.38
2019-01-26T22:24:37.752Z,97757.73
2019-01-26T22:27:04.331Z,97749.11
2019-01-26T22:29:31.320Z,97752.73
2019-01-26T22:31:58.139Z,97746.00
2019-01-26T22:34:24.691Z,97742.05
2019-01-26T22:36:51.261Z,97740.12
2019-01-26T22:39:17.799Z,97732.00
2019-01-26T22:41:44.866Z,97734.41
2019-01-26T22:44:11.424Z,97726.79
2019-01-26T22:46:38.012Z,97726.64
2019-01-26T22:49:04.549Z,97714.08
2019-01-26T22:51:31.129Z,97705.94
2019-01-26T22:53:57.695Z,97713.81
2019-01-26T22:56:24.241Z,97697.86
2019-01-26T22:58:50.810Z,97703.67
2019-01-26T23:01:24.318Z,97699.82
2019-01-26T23:04:20.578Z,97686.98
2019-01-26T23:06:57.367Z,97680.12
2019-01-26T23:09:29.214Z,97677.63
2019-01-26T23:12:46.687Z,97661.17
2019-01-26T23:15:48.050Z,97672.72
2019-01-26T23:18:27.991Z,97669.92
2019-01-26T23:21:23.182Z,97662.53
2019-01-26T23:24:37.979Z,97670.15
2019-01-26T23:27:33.352Z,97655.73
2019-01-26T23:30:44.516Z,97649.47
2019-01-26T23:33:11.082Z,97625.14
2019-01-26T23:35:37.628Z,97638.09
2019-01-26T23:38:04.203Z,97624.19
2019-01-26T23:40:30.742Z,97623.80
2019-01-26T23:42:57.329Z,97615.84
2019-01-26T23:45:23.864Z,97607.50
2019-01-26T23:47:50.447Z,97599.66
2019-01-26T23:50:17.128Z,97600.36
2019-01-26T23:52:43.682Z,97594.44
2019-01-26T23:55:10.257Z,97590.84
2019-01-26T23:57:36.825Z,97586.91
